sensor_id;sensor_type;location;lat;lon;timestamp;temperature;humidity
49242;DHT22;35079;52.704;13.814;2023-07-22T00:00:32;12.80;99.90
49242;DHT22;35079;52.704;13.814;2023-07-22T00:02:58;12.70;99.90
49242;DHT22;35079;52.704;13.814;2023-07-22T00:05:23;12.70;99.90
49242;DHT22;35079;52.704;13.814;2023-07-22T00:07:50;12.70;99.90
49242;DHT22;35079;52.704;13.814;2023-07-22T00:10:16;12.70;99.90
49242;DHT22;35079;52.704;13.814;2023-07-22T00:12:42;12.70;99.90
49242;DHT22;35079;52.704;13.814;2023-07-22T00:15:08;12.80;99.90
49242;DHT22;35079;52.704;13.814;2023-07-22T00:17:37;12.70;99.90
49242;DHT22;35079;52.704;13.814;2023-07-22T00:20:03;12.70;99.90
49242;DHT22;35079;52.704;13.814;2023-07-22T00:22:30;12.70;99.90
49242;DHT22;35079;52.704;13.814;2023-07-22T00:24:56;12.80;99.90
49242;DHT22;35079;52.704;13.814;2023-07-22T00:27:25;12.80;99.90
49242;DHT22;35079;52.704;13.814;2023-07-22T00:29:50;12.80;99.90
49242;DHT22;35079;52.704;13.814;2023-07-22T00:32:16;12.80;99.90
49242;DHT22;35079;52.704;13.814;2023-07-22T00:34:42;12.90;99.90
49242;DHT22;35079;52.704;13.814;2023-07-22T00:37:08;12.80;99.90
49242;DHT22;35079;52.704;13.814;2023-07-22T00:39:33;12.70;99.90
49242;DHT22;35079;52.704;13.814;2023-07-22T00:41:59;12.80;99.90
49242;DHT22;35079;52.704;13.814;2023-07-22T00:44:25;12.80;99.90
49242;DHT22;35079;52.704;13.814;2023-07-22T00:46:54;12.80;99.90
49242;DHT22;35079;52.704;13.814;2023-07-22T00:49:20;12.80;99.90
49242;DHT22;35079;52.704;13.814;2023-07-22T00:51:46;12.80;99.90
49242;DHT22;35079;52.704;13.814;2023-07-22T00:54:12;12.90;99.90
49242;DHT22;35079;52.704;13.814;2023-07-22T00:56:39;13.00;99.90
49242;DHT22;35079;52.704;13.814;2023-07-22T00:59:05;13.00;99.90
49242;DHT22;35079;52.704;13.814;2023-07-22T01:01:31;13.00;99.90
49242;DHT22;35079;52.704;13.814;2023-07-22T01:03:57;13.10;99.90
49242;DHT22;35079;52.704;13.814;2023-07-22T01:06:23;13.10;99.90
49242;DHT22;35079;52.704;13.814;2023-07-22T01:08:50;13.10;99.90
49242;DHT22;35079;52.704;13.814;2023-07-22T01:11:16;13.10;99.90
49242;DHT22;35079;52.704;13.814;2023-07-22T01:13:42;13.10;99.90
49242;DHT22;35079;52.704;13.814;2023-07-22T01:16:08;13.20;99.90
49242;DHT22;35079;52.704;13.814;2023-07-22T01:18:34;13.20;99.90
49242;DHT22;35079;52.704;13.814;2023-07-22T01:21:00;13.20;99.90
49242;DHT22;35079;52.704;13.814;2023-07-22T01:23:26;13.10;99.90
49242;DHT22;35079;52.704;13.814;2023-07-22T01:25:52;13.10;99.90
49242;DHT22;35079;52.704;13.814;2023-07-22T01:28:18;13.20;99.90
49242;DHT22;35079;52.704;13.814;2023-07-22T01:30:45;13.30;99.90
49242;DHT22;35079;52.704;13.814;2023-07-22T01:33:11;13.10;99.90
49242;DHT22;35079;52.704;13.814;2023-07-22T01:35:37;13.20;99.90
49242;DHT22;35079;52.704;13.814;2023-07-22T01:38:03;13.20;99.90
49242;DHT22;35079;52.704;13.814;2023-07-22T01:40:28;13.10;99.90
49242;DHT22;35079;52.704;13.814;2023-07-22T01:42:54;13.20;99.90
49242;DHT22;35079;52.704;13.814;2023-07-22T01:45:19;13.30;99.90
49242;DHT22;35079;52.704;13.814;2023-07-22T01:47:45;13.20;99.90
49242;DHT22;35079;52.704;13.814;2023-07-22T01:50:11;13.30;99.90
49242;DHT22;35079;52.704;13.814;2023-07-22T01:52:36;13.30;99.90
49242;DHT22;35079;52.704;13.814;2023-07-22T01:55:02;13.30;99.90
49242;DHT22;35079;52.704;13.814;2023-07-22T01:57:34;13.30;99.90
49242;DHT22;35079;52.704;13.814;2023-07-22T01:59:59;13.40;99.90
49242;DHT22;35079;52.704;13.814;2023-07-22T02:02:25;13.40;99.90
49242;DHT22;35079;52.704;13.814;2023-07-22T02:04:51;13.30;99.90
49242;DHT22;35079;52.704;13.814;2023-07-22T02:07:16;13.30;99.90
49242;DHT22;35079;52.704;13.814;2023-07-22T02:09:42;13.40;99.90
49242;DHT22;35079;52.704;13.814;2023-07-22T02:12:08;13.40;99.90
49242;DHT22;35079;52.704;13.814;2023-07-22T02:14:33;13.30;99.90
49242;DHT22;35079;52.704;13.814;2023-07-22T02:16:59;13.40;99.90
49242;DHT22;35079;52.704;13.814;2023-07-22T02:19:24;13.30;99.90
49242;DHT22;35079;52.704;13.814;2023-07-22T02:21:50;13.40;99.90
49242;DHT22;35079;52.704;13.814;2023-07-22T02:24:16;13.40;99.90
49242;DHT22;35079;52.704;13.814;2023-07-22T02:26:41;13.40;99.90
49242;DHT22;35079;52.704;13.814;2023-07-22T02:29:07;13.40;99.90
49242;DHT22;35079;52.704;13.814;2023-07-22T02:31:33;13.40;99.90
49242;DHT22;35079;52.704;13.814;2023-07-22T02:33:59;13.40;99.90
49242;DHT22;35079;52.704;13.814;2023-07-22T02:36:25;13.50;99.90
49242;DHT22;35079;52.704;13.814;2023-07-22T02:38:50;13.50;99.90
49242;DHT22;35079;52.704;13.814;2023-07-22T02:41:16;13.60;99.90
49242;DHT22;35079;52.704;13.814;2023-07-22T02:43:41;13.60;99.90
49242;DHT22;35079;52.704;13.814;2023-07-22T02:46:07;13.60;99.90
49242;DHT22;35079;52.704;13.814;2023-07-22T02:48:33;13.40;99.90
49242;DHT22;35079;52.704;13.814;2023-07-22T02:51:09;13.70;99.90
49242;DHT22;35079;52.704;13.814;2023-07-22T02:53:36;13.70;99.90
49242;DHT22;35079;52.704;13.814;2023-07-22T02:56:02;13.50;99.90
49242;DHT22;35079;52.704;13.814;2023-07-22T02:58:28;13.50;99.90
49242;DHT22;35079;52.704;13.814;2023-07-22T03:00:54;13.50;99.90
49242;DHT22;35079;52.704;13.814;2023-07-22T03:03:21;13.40;99.90
49242;DHT22;35079;52.704;13.814;2023-07-22T03:05:46;13.50;99.90
49242;DHT22;35079;52.704;13.814;2023-07-22T03:08:12;13.50;99.90
49242;DHT22;35079;52.704;13.814;2023-07-22T03:10:38;13.40;99.90
49242;DHT22;35079;52.704;13.814;2023-07-22T03:13:04;13.50;99.90
49242;DHT22;35079;52.704;13.814;2023-07-22T03:15:30;13.50;99.90
49242;DHT22;35079;52.704;13.814;2023-07-22T03:17:56;13.40;99.90
49242;DHT22;35079;52.704;13.814;2023-07-22T03:20:23;13.40;99.90
49242;DHT22;35079;52.704;13.814;2023-07-22T03:22:50;13.30;99.90
49242;DHT22;35079;52.704;13.814;2023-07-22T03:25:16;13.40;99.90
49242;DHT22;35079;52.704;13.814;2023-07-22T03:27:43;13.30;99.90
49242;DHT22;35079;52.704;13.814;2023-07-22T03:30:15;13.30;99.90
49242;DHT22;35079;52.704;13.814;2023-07-22T03:32:44;13.30;99.90
49242;DHT22;35079;52.704;13.814;2023-07-22T03:35:10;13.20;99.90
49242;DHT22;35079;52.704;13.814;2023-07-22T03:37:37;13.20;99.90
49242;DHT22;35079;52.704;13.814;2023-07-22T03:40:04;13.30;99.90
49242;DHT22;35079;52.704;13.814;2023-07-22T03:42:34;13.20;99.90
49242;DHT22;35079;52.704;13.814;2023-07-22T03:45:00;13.20;99.90
49242;DHT22;35079;52.704;13.814;2023-07-22T03:47:26;13.20;99.90
49242;DHT22;35079;52.704;13.814;2023-07-22T03:49:51;13.20;99.90
49242;DHT22;35079;52.704;13.814;2023-07-22T03:52:17;13.30;99.90
49242;DHT22;35079;52.704;13.814;2023-07-22T03:54:44;13.40;99.90
49242;DHT22;35079;52.704;13.814;2023-07-22T03:57:10;13.30;99.90
49242;DHT22;35079;52.704;13.814;2023-07-22T03:59:35;13.30;99.90
49242;DHT22;35079;52.704;13.814;2023-07-22T04:02:01;13.40;99.90
49242;DHT22;35079;52.704;13.814;2023-07-22T04:04:27;13.40;99.90
49242;DHT22;35079;52.704;13.814;2023-07-22T04:06:53;13.40;99.90
49242;DHT22;35079;52.704;13.814;2023-07-22T04:09:18;13.40;99.90
49242;DHT22;35079;52.704;13.814;2023-07-22T04:11:44;13.50;99.90
49242;DHT22;35079;52.704;13.814;2023-07-22T04:14:09;13.50;99.90
49242;DHT22;35079;52.704;13.814;2023-07-22T04:16:38;13.60;99.90
49242;DHT22;35079;52.704;13.814;2023-07-22T04:19:03;13.50;99.90
49242;DHT22;35079;52.704;13.814;2023-07-22T04:21:29;13.60;99.90
49242;DHT22;35079;52.704;13.814;2023-07-22T04:23:55;13.50;99.90
49242;DHT22;35079;52.704;13.814;2023-07-22T04:26:20;13.50;99.90
49242;DHT22;35079;52.704;13.814;2023-07-22T04:28:46;13.50;99.90
49242;DHT22;35079;52.704;13.814;2023-07-22T04:31:11;13.60;99.90
49242;DHT22;35079;52.704;13.814;2023-07-22T04:33:37;13.60;99.90
49242;DHT22;35079;52.704;13.814;2023-07-22T04:36:02;13.60;99.90
49242;DHT22;35079;52.704;13.814;2023-07-22T04:38:28;13.60;99.90
49242;DHT22;35079;52.704;13.814;2023-07-22T04:40:54;13.60;99.90
49242;DHT22;35079;52.704;13.814;2023-07-22T04:43:19;13.60;99.90
49242;DHT22;35079;52.704;13.814;2023-07-22T04:45:45;13.70;99.90
49242;DHT22;35079;52.704;13.814;2023-07-22T04:48:15;13.80;99.90
49242;DHT22;35079;52.704;13.814;2023-07-22T04:50:41;13.90;99.90
49242;DHT22;35079;52.704;13.814;2023-07-22T04:53:10;13.90;99.90
49242;DHT22;35079;52.704;13.814;2023-07-22T04:55:36;13.90;99.90
49242;DHT22;35079;52.704;13.814;2023-07-22T04:58:02;13.90;99.90
49242;DHT22;35079;52.704;13.814;2023-07-22T05:00:28;14.00;99.90
49242;DHT22;35079;52.704;13.814;2023-07-22T05:02:54;14.00;99.90
49242;DHT22;35079;52.704;13.814;2023-07-22T05:05:21;13.90;99.90
49242;DHT22;35079;52.704;13.814;2023-07-22T05:07:47;13.90;99.90
49242;DHT22;35079;52.704;13.814;2023-07-22T05:10:15;14.00;99.90
49242;DHT22;35079;52.704;13.814;2023-07-22T05:12:41;14.10;99.90
49242;DHT22;35079;52.704;13.814;2023-07-22T05:15:09;14.10;99.90
49242;DHT22;35079;52.704;13.814;2023-07-22T05:17:34;14.10;99.90
49242;DHT22;35079;52.704;13.814;2023-07-22T05:20:00;14.20;99.90
49242;DHT22;35079;52.704;13.814;2023-07-22T05:22:26;14.30;99.90
49242;DHT22;35079;52.704;13.814;2023-07-22T05:24:51;14.50;99.90
49242;DHT22;35079;52.704;13.814;2023-07-22T05:27:17;14.40;99.90
49242;DHT22;35079;52.704;13.814;2023-07-22T05:29:43;14.30;99.90
49242;DHT22;35079;52.704;13.814;2023-07-22T05:32:09;14.50;99.90
49242;DHT22;35079;52.704;13.814;2023-07-22T05:34:35;14.50;99.90
49242;DHT22;35079;52.704;13.814;2023-07-22T05:37:00;14.70;99.90
49242;DHT22;35079;52.704;13.814;2023-07-22T05:39:26;14.70;99.90
49242;DHT22;35079;52.704;13.814;2023-07-22T05:41:52;14.80;99.90
49242;DHT22;35079;52.704;13.814;2023-07-22T05:44:18;14.80;99.90
49242;DHT22;35079;52.704;13.814;2023-07-22T05:46:43;14.90;99.90
49242;DHT22;35079;52.704;13.814;2023-07-22T05:49:09;14.90;99.90
49242;DHT22;35079;52.704;13.814;2023-07-22T05:51:36;15.00;99.90
49242;DHT22;35079;52.704;13.814;2023-07-22T05:54:02;14.90;99.90
49242;DHT22;35079;52.704;13.814;2023-07-22T05:56:27;15.10;99.90
49242;DHT22;35079;52.704;13.814;2023-07-22T05:58:53;15.20;99.90
49242;DHT22;35079;52.704;13.814;2023-07-22T06:01:18;15.20;99.90
49242;DHT22;35079;52.704;13.814;2023-07-22T06:03:44;15.20;99.90
49242;DHT22;35079;52.704;13.814;2023-07-22T06:06:10;15.20;99.90
49242;DHT22;35079;52.704;13.814;2023-07-22T06:08:35;15.20;99.90
49242;DHT22;35079;52.704;13.814;2023-07-22T06:11:01;15.30;99.90
49242;DHT22;35079;52.704;13.814;2023-07-22T06:13:27;15.40;99.90
49242;DHT22;35079;52.704;13.814;2023-07-22T06:15:53;15.50;99.90
49242;DHT22;35079;52.704;13.814;2023-07-22T06:18:18;15.70;99.90
49242;DHT22;35079;52.704;13.814;2023-07-22T06:20:45;15.60;99.90
49242;DHT22;35079;52.704;13.814;2023-07-22T06:23:10;15.60;99.90
49242;DHT22;35079;52.704;13.814;2023-07-22T06:25:36;15.60;99.90
49242;DHT22;35079;52.704;13.814;2023-07-22T06:28:01;15.60;99.90
49242;DHT22;35079;52.704;13.814;2023-07-22T06:30:27;15.40;99.90
49242;DHT22;35079;52.704;13.814;2023-07-22T06:32:53;15.60;99.90
49242;DHT22;35079;52.704;13.814;2023-07-22T06:35:18;15.60;99.90
49242;DHT22;35079;52.704;13.814;2023-07-22T06:37:44;15.80;99.90
49242;DHT22;35079;52.704;13.814;2023-07-22T06:40:10;15.80;99.90
49242;DHT22;35079;52.704;13.814;2023-07-22T06:42:36;15.80;99.90
49242;DHT22;35079;52.704;13.814;2023-07-22T06:45:01;16.00;99.90
49242;DHT22;35079;52.704;13.814;2023-07-22T06:47:27;16.00;99.90
49242;DHT22;35079;52.704;13.814;2023-07-22T06:49:52;16.10;99.90
49242;DHT22;35079;52.704;13.814;2023-07-22T06:52:18;16.20;99.90
49242;DHT22;35079;52.704;13.814;2023-07-22T06:54:44;16.00;99.90
49242;DHT22;35079;52.704;13.814;2023-07-22T06:57:09;16.10;99.90
49242;DHT22;35079;52.704;13.814;2023-07-22T06:59:35;16.10;99.90
49242;DHT22;35079;52.704;13.814;2023-07-22T07:02:02;16.30;99.90
49242;DHT22;35079;52.704;13.814;2023-07-22T07:04:28;16.30;99.90
49242;DHT22;35079;52.704;13.814;2023-07-22T07:06:54;16.40;99.90
49242;DHT22;35079;52.704;13.814;2023-07-22T07:09:19;16.50;99.90
49242;DHT22;35079;52.704;13.814;2023-07-22T07:11:45;16.60;99.90
49242;DHT22;35079;52.704;13.814;2023-07-22T07:14:10;16.50;99.90
49242;DHT22;35079;52.704;13.814;2023-07-22T07:16:36;16.50;99.90
49242;DHT22;35079;52.704;13.814;2023-07-22T07:19:02;16.50;99.90
49242;DHT22;35079;52.704;13.814;2023-07-22T07:21:28;16.60;99.90
49242;DHT22;35079;52.704;13.814;2023-07-22T07:23:54;16.80;99.90
49242;DHT22;35079;52.704;13.814;2023-07-22T07:26:20;16.70;99.90
49242;DHT22;35079;52.704;13.814;2023-07-22T07:28:49;16.80;99.90
49242;DHT22;35079;52.704;13.814;2023-07-22T07:31:16;16.70;99.90
49242;DHT22;35079;52.704;13.814;2023-07-22T07:33:42;16.70;99.90
49242;DHT22;35079;52.704;13.814;2023-07-22T07:36:07;16.90;99.90
49242;DHT22;35079;52.704;13.814;2023-07-22T07:38:33;16.90;99.90
49242;DHT22;35079;52.704;13.814;2023-07-22T07:41:00;16.80;99.90
49242;DHT22;35079;52.704;13.814;2023-07-22T07:43:26;16.90;99.90
49242;DHT22;35079;52.704;13.814;2023-07-22T07:46:16;16.90;99.90
49242;DHT22;35079;52.704;13.814;2023-07-22T07:48:47;16.90;99.90
49242;DHT22;35079;52.704;13.814;2023-07-22T07:51:14;17.20;99.90
49242;DHT22;35079;52.704;13.814;2023-07-22T07:53:43;17.30;99.90
49242;DHT22;35079;52.704;13.814;2023-07-22T07:56:10;17.30;99.90
49242;DHT22;35079;52.704;13.814;2023-07-22T07:58:36;17.30;99.90
49242;DHT22;35079;52.704;13.814;2023-07-22T08:01:02;17.30;99.90
49242;DHT22;35079;52.704;13.814;2023-07-22T08:03:28;17.20;99.90
49242;DHT22;35079;52.704;13.814;2023-07-22T08:05:54;17.30;99.90
49242;DHT22;35079;52.704;13.814;2023-07-22T08:08:20;17.40;99.90
49242;DHT22;35079;52.704;13.814;2023-07-22T08:10:46;17.60;99.90
49242;DHT22;35079;52.704;13.814;2023-07-22T08:13:11;17.50;99.90
49242;DHT22;35079;52.704;13.814;2023-07-22T08:15:37;17.60;99.90
49242;DHT22;35079;52.704;13.814;2023-07-22T08:18:03;18.00;99.90
49242;DHT22;35079;52.704;13.814;2023-07-22T08:20:29;18.10;99.90
49242;DHT22;35079;52.704;13.814;2023-07-22T08:22:55;18.10;99.90
49242;DHT22;35079;52.704;13.814;2023-07-22T08:25:21;18.20;99.90
49242;DHT22;35079;52.704;13.814;2023-07-22T08:27:47;18.40;99.90
49242;DHT22;35079;52.704;13.814;2023-07-22T08:30:12;18.40;99.90
49242;DHT22;35079;52.704;13.814;2023-07-22T08:32:38;18.30;99.90
49242;DHT22;35079;52.704;13.814;2023-07-22T08:35:04;18.30;99.90
49242;DHT22;35079;52.704;13.814;2023-07-22T08:37:30;18.20;99.90
49242;DHT22;35079;52.704;13.814;2023-07-22T08:39:56;18.00;99.90
49242;DHT22;35079;52.704;13.814;2023-07-22T08:42:23;17.90;99.90
49242;DHT22;35079;52.704;13.814;2023-07-22T08:44:56;17.90;99.90
49242;DHT22;35079;52.704;13.814;2023-07-22T08:47:23;18.10;99.90
49242;DHT22;35079;52.704;13.814;2023-07-22T08:49:52;18.30;99.90
49242;DHT22;35079;52.704;13.814;2023-07-22T08:52:19;18.50;99.90
49242;DHT22;35079;52.704;13.814;2023-07-22T08:54:45;18.80;99.90
49242;DHT22;35079;52.704;13.814;2023-07-22T08:57:14;19.10;99.90
49242;DHT22;35079;52.704;13.814;2023-07-22T08:59:41;19.10;99.90
49242;DHT22;35079;52.704;13.814;2023-07-22T09:02:11;19.00;99.90
49242;DHT22;35079;52.704;13.814;2023-07-22T09:04:38;18.60;99.90
49242;DHT22;35079;52.704;13.814;2023-07-22T09:07:04;18.80;99.90
49242;DHT22;35079;52.704;13.814;2023-07-22T09:09:31;18.90;99.90
49242;DHT22;35079;52.704;13.814;2023-07-22T09:11:58;18.90;99.90
49242;DHT22;35079;52.704;13.814;2023-07-22T09:14:25;18.60;99.90
49242;DHT22;35079;52.704;13.814;2023-07-22T09:16:51;18.60;99.90
49242;DHT22;35079;52.704;13.814;2023-07-22T09:19:16;19.10;99.90
49242;DHT22;35079;52.704;13.814;2023-07-22T09:21:42;19.40;99.90
49242;DHT22;35079;52.704;13.814;2023-07-22T09:24:23;19.80;99.90
49242;DHT22;35079;52.704;13.814;2023-07-22T09:26:49;19.90;99.90
49242;DHT22;35079;52.704;13.814;2023-07-22T09:29:15;19.70;99.90
49242;DHT22;35079;52.704;13.814;2023-07-22T09:31:52;19.40;99.90
49242;DHT22;35079;52.704;13.814;2023-07-22T09:34:18;19.50;99.90
49242;DHT22;35079;52.704;13.814;2023-07-22T09:36:59;19.60;99.90
49242;DHT22;35079;52.704;13.814;2023-07-22T09:39:29;19.30;99.90
49242;DHT22;35079;52.704;13.814;2023-07-22T09:41:56;19.30;99.90
49242;DHT22;35079;52.704;13.814;2023-07-22T09:44:22;20.20;99.90
49242;DHT22;35079;52.704;13.814;2023-07-22T09:46:49;21.20;99.90
49242;DHT22;35079;52.704;13.814;2023-07-22T09:49:17;22.30;99.90
49242;DHT22;35079;52.704;13.814;2023-07-22T09:51:43;22.90;99.90
49242;DHT22;35079;52.704;13.814;2023-07-22T09:54:08;22.50;99.90
49242;DHT22;35079;52.704;13.814;2023-07-22T09:56:48;22.80;99.90
49242;DHT22;35079;52.704;13.814;2023-07-22T09:59:14;22.60;99.90
49242;DHT22;35079;52.704;13.814;2023-07-22T10:01:40;22.80;99.90
49242;DHT22;35079;52.704;13.814;2023-07-22T10:04:07;23.10;99.90
49242;DHT22;35079;52.704;13.814;2023-07-22T10:06:33;23.40;99.90
49242;DHT22;35079;52.704;13.814;2023-07-22T10:09:04;23.50;99.90
49242;DHT22;35079;52.704;13.814;2023-07-22T10:11:34;23.50;99.00
49242;DHT22;35079;52.704;13.814;2023-07-22T10:14:02;23.10;98.80
49242;DHT22;35079;52.704;13.814;2023-07-22T10:16:28;23.10;99.60
49242;DHT22;35079;52.704;13.814;2023-07-22T10:18:55;23.70;99.90
49242;DHT22;35079;52.704;13.814;2023-07-22T10:21:21;24.80;97.10
49242;DHT22;35079;52.704;13.814;2023-07-22T10:23:48;25.60;96.60
49242;DHT22;35079;52.704;13.814;2023-07-22T10:26:17;26.60;94.90
49242;DHT22;35079;52.704;13.814;2023-07-22T10:28:45;26.80;92.70
49242;DHT22;35079;52.704;13.814;2023-07-22T10:31:12;26.30;92.40
49242;DHT22;35079;52.704;13.814;2023-07-22T10:33:38;25.50;92.20
49242;DHT22;35079;52.704;13.814;2023-07-22T10:36:05;24.80;92.80
49242;DHT22;35079;52.704;13.814;2023-07-22T10:38:31;24.30;93.50
49242;DHT22;35079;52.704;13.814;2023-07-22T10:40:57;24.10;94.40
49242;DHT22;35079;52.704;13.814;2023-07-22T10:45:52;25.40;91.50
49242;DHT22;35079;52.704;13.814;2023-07-22T10:48:18;26.00;91.70
49242;DHT22;35079;52.704;13.814;2023-07-22T10:50:48;26.10;90.20
49242;DHT22;35079;52.704;13.814;2023-07-22T10:56:12;26.80;90.00
49242;DHT22;35079;52.704;13.814;2023-07-22T11:14:26;25.20;89.00
49242;DHT22;35079;52.704;13.814;2023-07-22T11:16:53;24.80;88.50
49242;DHT22;35079;52.704;13.814;2023-07-22T11:19:21;24.50;87.80
49242;DHT22;35079;52.704;13.814;2023-07-22T11:21:48;25.00;88.30
49242;DHT22;35079;52.704;13.814;2023-07-22T11:24:15;25.80;85.40
49242;DHT22;35079;52.704;13.814;2023-07-22T11:26:41;26.30;86.40
49242;DHT22;35079;52.704;13.814;2023-07-22T11:29:07;26.40;85.00
49242;DHT22;35079;52.704;13.814;2023-07-22T11:31:34;26.30;82.80
49242;DHT22;35079;52.704;13.814;2023-07-22T11:34:02;26.50;86.10
49242;DHT22;35079;52.704;13.814;2023-07-22T11:36:28;27.00;82.50
49242;DHT22;35079;52.704;13.814;2023-07-22T11:38:53;27.10;82.20
49242;DHT22;35079;52.704;13.814;2023-07-22T11:41:24;26.90;81.00
49242;DHT22;35079;52.704;13.814;2023-07-22T11:43:50;26.80;80.50
49242;DHT22;35079;52.704;13.814;2023-07-22T11:46:15;26.10;77.50
49242;DHT22;35079;52.704;13.814;2023-07-22T11:48:49;25.20;78.60
49242;DHT22;35079;52.704;13.814;2023-07-22T11:51:25;24.30;79.90
49242;DHT22;35079;52.704;13.814;2023-07-22T11:53:52;23.70;84.70
49242;DHT22;35079;52.704;13.814;2023-07-22T11:56:27;23.10;85.80
49242;DHT22;35079;52.704;13.814;2023-07-22T11:58:55;22.70;84.90
49242;DHT22;35079;52.704;13.814;2023-07-22T12:01:22;22.20;91.10
49242;DHT22;35079;52.704;13.814;2023-07-22T12:03:48;22.10;90.30
49242;DHT22;35079;52.704;13.814;2023-07-22T12:06:14;22.00;90.80
49242;DHT22;35079;52.704;13.814;2023-07-22T12:08:48;21.70;91.00
49242;DHT22;35079;52.704;13.814;2023-07-22T12:11:19;21.70;91.40
49242;DHT22;35079;52.704;13.814;2023-07-22T12:13:45;22.60;91.80
49242;DHT22;35079;52.704;13.814;2023-07-22T12:16:12;24.00;90.10
49242;DHT22;35079;52.704;13.814;2023-07-22T12:18:45;24.70;85.50
49242;DHT22;35079;52.704;13.814;2023-07-22T12:21:11;25.90;86.10
49242;DHT22;35079;52.704;13.814;2023-07-22T12:23:37;26.50;81.00
49242;DHT22;35079;52.704;13.814;2023-07-22T12:26:04;26.60;84.90
49242;DHT22;35079;52.704;13.814;2023-07-22T12:28:29;26.80;81.50
49242;DHT22;35079;52.704;13.814;2023-07-22T12:30:55;27.40;81.30
49242;DHT22;35079;52.704;13.814;2023-07-22T12:33:23;28.30;73.00
49242;DHT22;35079;52.704;13.814;2023-07-22T12:35:50;27.50;74.00
49242;DHT22;35079;52.704;13.814;2023-07-22T12:38:15;26.40;74.30
49242;DHT22;35079;52.704;13.814;2023-07-22T12:40:41;25.80;76.40
49242;DHT22;35079;52.704;13.814;2023-07-22T12:43:06;25.20;74.50
49242;DHT22;35079;52.704;13.814;2023-07-22T12:45:33;24.40;76.80
49242;DHT22;35079;52.704;13.814;2023-07-22T12:47:59;24.50;81.50
49242;DHT22;35079;52.704;13.814;2023-07-22T12:50:24;24.30;79.00
49242;DHT22;35079;52.704;13.814;2023-07-22T12:52:50;24.60;81.50
49242;DHT22;35079;52.704;13.814;2023-07-22T12:55:15;25.20;80.70
49242;DHT22;35079;52.704;13.814;2023-07-22T12:57:41;25.70;75.30
49242;DHT22;35079;52.704;13.814;2023-07-22T13:00:07;25.70;75.00
49242;DHT22;35079;52.704;13.814;2023-07-22T13:02:35;25.40;74.50
49242;DHT22;35079;52.704;13.814;2023-07-22T13:05:01;25.20;79.40
49242;DHT22;35079;52.704;13.814;2023-07-22T13:07:27;25.00;80.40
49242;DHT22;35079;52.704;13.814;2023-07-22T13:09:53;25.40;76.90
49242;DHT22;35079;52.704;13.814;2023-07-22T13:12:21;25.20;75.90
49242;DHT22;35079;52.704;13.814;2023-07-22T13:14:47;25.70;71.70
49242;DHT22;35079;52.704;13.814;2023-07-22T13:17:13;25.90;72.30
49242;DHT22;35079;52.704;13.814;2023-07-22T13:19:38;25.50;71.20
49242;DHT22;35079;52.704;13.814;2023-07-22T13:22:04;25.30;75.30
49242;DHT22;35079;52.704;13.814;2023-07-22T13:24:30;25.00;76.50
49242;DHT22;35079;52.704;13.814;2023-07-22T13:26:55;24.70;74.50
49242;DHT22;35079;52.704;13.814;2023-07-22T13:29:21;24.40;76.00
49242;DHT22;35079;52.704;13.814;2023-07-22T13:31:46;24.30;79.10
49242;DHT22;35079;52.704;13.814;2023-07-22T13:34:12;24.80;80.20
49242;DHT22;35079;52.704;13.814;2023-07-22T13:36:38;25.50;77.60
49242;DHT22;35079;52.704;13.814;2023-07-22T13:39:03;25.90;75.10
49242;DHT22;35079;52.704;13.814;2023-07-22T13:41:29;25.70;74.40
49242;DHT22;35079;52.704;13.814;2023-07-22T13:43:54;25.10;73.20
49242;DHT22;35079;52.704;13.814;2023-07-22T13:46:20;24.80;76.50
49242;DHT22;35079;52.704;13.814;2023-07-22T13:48:46;24.60;73.90
49242;DHT22;35079;52.704;13.814;2023-07-22T13:51:11;24.30;76.60
49242;DHT22;35079;52.704;13.814;2023-07-22T13:53:37;23.90;76.80
49242;DHT22;35079;52.704;13.814;2023-07-22T13:56:02;23.80;78.60
49242;DHT22;35079;52.704;13.814;2023-07-22T13:58:28;23.70;81.70
49242;DHT22;35079;52.704;13.814;2023-07-22T14:00:54;23.80;79.00
49242;DHT22;35079;52.704;13.814;2023-07-22T14:03:20;23.80;78.90
49242;DHT22;35079;52.704;13.814;2023-07-22T14:05:45;23.80;79.60
49242;DHT22;35079;52.704;13.814;2023-07-22T14:08:12;23.60;80.00
49242;DHT22;35079;52.704;13.814;2023-07-22T14:10:37;23.20;80.40
49242;DHT22;35079;52.704;13.814;2023-07-22T14:13:03;23.20;80.40
49242;DHT22;35079;52.704;13.814;2023-07-22T14:15:29;23.30;83.70
49242;DHT22;35079;52.704;13.814;2023-07-22T14:17:54;23.80;83.40
49242;DHT22;35079;52.704;13.814;2023-07-22T14:20:20;24.20;79.20
49242;DHT22;35079;52.704;13.814;2023-07-22T14:22:45;24.40;79.70
49242;DHT22;35079;52.704;13.814;2023-07-22T14:25:11;24.40;78.90
49242;DHT22;35079;52.704;13.814;2023-07-22T14:27:40;24.50;78.10
49242;DHT22;35079;52.704;13.814;2023-07-22T14:30:06;24.10;77.70
49242;DHT22;35079;52.704;13.814;2023-07-22T14:32:32;23.90;78.10
49242;DHT22;35079;52.704;13.814;2023-07-22T14:34:58;23.90;84.70
49242;DHT22;35079;52.704;13.814;2023-07-22T14:37:23;24.00;84.10
49242;DHT22;35079;52.704;13.814;2023-07-22T14:39:49;23.80;82.90
49242;DHT22;35079;52.704;13.814;2023-07-22T14:42:15;24.00;77.70
49242;DHT22;35079;52.704;13.814;2023-07-22T14:44:40;23.70;81.00
49242;DHT22;35079;52.704;13.814;2023-07-22T14:47:06;23.40;81.70
49242;DHT22;35079;52.704;13.814;2023-07-22T14:49:32;23.30;84.20
49242;DHT22;35079;52.704;13.814;2023-07-22T14:51:58;23.10;81.30
49242;DHT22;35079;52.704;13.814;2023-07-22T14:54:23;23.30;82.80
49242;DHT22;35079;52.704;13.814;2023-07-22T14:56:49;23.30;80.70
49242;DHT22;35079;52.704;13.814;2023-07-22T14:59:15;23.20;83.40
49242;DHT22;35079;52.704;13.814;2023-07-22T15:01:41;23.10;84.00
49242;DHT22;35079;52.704;13.814;2023-07-22T15:04:08;23.30;81.00
49242;DHT22;35079;52.704;13.814;2023-07-22T15:06:34;23.20;81.90
49242;DHT22;35079;52.704;13.814;2023-07-22T15:09:01;23.10;81.00
49242;DHT22;35079;52.704;13.814;2023-07-22T15:11:28;22.90;85.30
49242;DHT22;35079;52.704;13.814;2023-07-22T15:13:53;22.60;85.30
49242;DHT22;35079;52.704;13.814;2023-07-22T15:16:19;22.40;84.90
49242;DHT22;35079;52.704;13.814;2023-07-22T15:18:45;22.20;90.60
49242;DHT22;35079;52.704;13.814;2023-07-22T15:21:10;21.90;90.10
49242;DHT22;35079;52.704;13.814;2023-07-22T15:23:36;21.50;90.00
49242;DHT22;35079;52.704;13.814;2023-07-22T15:26:01;21.40;90.10
49242;DHT22;35079;52.704;13.814;2023-07-22T15:28:27;21.30;91.20
49242;DHT22;35079;52.704;13.814;2023-07-22T15:30:53;21.20;91.20